Time;durP1;ratioP1;P1;durP2;ratioP2;P2;SDS_P1;SDS_P2;PMS_P1;PMS_P2;Temp;Humidity;BMP_temperature;BMP_pressure;BME280_temperature;BME280_humidity;BME280_pressure;Samples;Min_cycle;Max_cycle;Signal;HPM_P1;HPM_P2
2023/05/07 00:01:02;;;;;;;29.02;22.20;;;32.70;71.60;;;;;;1951259;73;21163;-84
2023/05/07 00:03:33;;;;;;;29.85;22.98;;;32.70;71.20;;;;;;1946813;73;21202;-84
2023/05/07 00:06:05;;;;;;;30.92;24.55;;;32.70;71.60;;;;;;1958221;73;21062;-84
2023/05/07 00:08:36;;;;;;;30.95;23.42;;;32.80;71.30;;;;;;1954922;73;21229;-85
2023/05/07 00:11:07;;;;;;;34.33;24.27;;;32.80;71.10;;;;;;1950999;73;21454;-85
2023/05/07 00:13:39;;;;;;;32.00;24.05;;;32.80;70.80;;;;;;1945274;73;21206;-85
2023/05/07 00:16:12;;;;;;;31.87;24.25;;;32.80;71.00;;;;;;1945532;73;21223;-86
2023/05/07 00:19:04;;;;;;;30.08;23.62;;;32.80;70.90;;;;;;1946514;73;21140;-85
2023/05/07 00:21:39;;;;;;;32.25;23.77;;;32.80;70.40;;;;;;1948920;73;21242;-85
2023/05/07 00:24:10;;;;;;;31.12;23.47;;;32.90;70.70;;;;;;1948605;73;21172;-84
2023/05/07 00:26:41;;;;;;;31.65;23.20;;;32.90;70.80;;;;;;1945268;73;21124;-85
2023/05/07 00:29:12;;;;;;;31.80;23.47;;;32.90;70.60;;;;;;1942610;73;21144;-85
2023/05/07 00:31:43;;;;;;;30.80;22.60;;;32.90;70.20;;;;;;1947978;72;21143;-85
2023/05/07 00:34:15;;;;;;;32.90;24.00;;;33.00;70.40;;;;;;1956680;72;22248;-84
2023/05/07 00:36:46;;;;;;;29.32;23.02;;;33.00;70.20;;;;;;1963441;73;21269;-83
2023/05/07 00:39:17;;;;;;;24.45;21.30;;;33.00;70.40;;;;;;1957438;73;21717;-85
2023/05/07 00:41:48;;;;;;;28.10;21.65;;;33.00;70.00;;;;;;1948757;73;21166;-85
2023/05/07 00:44:19;;;;;;;25.65;21.35;;;33.10;69.80;;;;;;1949764;73;21569;-85
2023/05/07 00:46:51;;;;;;;28.83;22.73;;;33.10;69.50;;;;;;1928550;73;21115;-85
2023/05/07 00:49:22;;;;;;;30.57;21.27;;;33.20;69.70;;;;;;1923736;73;21125;-85
2023/05/07 00:51:53;;;;;;;29.15;21.30;;;33.20;69.60;;;;;;1945219;72;21718;-83
2023/05/07 00:54:31;;;;;;;25.17;20.25;;;33.30;69.40;;;;;;1941117;72;21094;-83
2023/05/07 00:57:23;;;;;;;27.98;21.27;;;33.40;69.10;;;;;;1938314;72;21173;-86
2023/05/07 01:00:00;;;;;;;33.58;25.05;;;33.40;68.70;;;;;;1906617;74;21157;-84
2023/05/07 01:02:31;;;;;;;25.85;20.43;;;33.50;68.70;;;;;;1889463;74;21208;-85
2023/05/07 01:05:04;;;;;;;23.90;19.25;;;33.60;68.60;;;;;;1892382;75;21595;-85
2023/05/07 01:07:38;;;;;;;29.80;21.73;;;33.60;68.20;;;;;;1854335;76;21248;-85
2023/05/07 01:10:11;;;;;;;24.18;19.70;;;33.60;68.00;;;;;;1880036;75;21123;-85
2023/05/07 01:12:44;;;;;;;24.32;20.12;;;33.70;68.10;;;;;;1880706;75;21122;-83
2023/05/07 01:15:15;;;;;;;24.63;17.65;;;33.80;67.70;;;;;;1881277;74;21072;-84
2023/05/07 01:17:46;;;;;;;27.85;19.00;;;33.90;67.30;;;;;;1881815;75;21068;-84
2023/05/07 01:20:18;;;;;;;53.13;20.12;;;33.90;67.20;;;;;;1880120;75;21102;-84
2023/05/07 01:22:50;;;;;;;28.85;17.95;;;34.00;67.00;;;;;;1905676;75;21121;-84
2023/05/07 01:25:27;;;;;;;24.57;17.50;;;34.10;66.90;;;;;;1910924;74;21134;-84
2023/05/07 01:28:07;;;;;;;18.82;16.07;;;34.10;66.50;;;;;;1899305;75;21079;-85
2023/05/07 01:33:50;;;;;;;20.62;16.42;;;34.20;65.80;;;;;;1824176;74;21051;-85
2023/05/07 01:36:30;;;;;;;20.02;15.95;;;34.30;66.00;;;;;;1886326;74;21272;-84
2023/05/07 01:39:02;;;;;;;19.57;16.48;;;34.40;65.80;;;;;;1888716;75;21233;-85
2023/05/07 01:41:33;;;;;;;21.97;17.73;;;34.50;65.50;;;;;;1876814;75;21130;-83
2023/05/07 01:44:04;;;;;;;20.25;16.23;;;34.60;65.00;;;;;;1896610;75;21639;-83
2023/05/07 01:46:36;;;;;;;23.05;16.45;;;34.70;65.10;;;;;;1891535;75;21185;-85
2023/05/07 01:49:07;;;;;;;21.70;17.12;;;34.70;64.60;;;;;;1880566;75;21040;-84
2023/05/07 01:51:57;;;;;;;20.45;16.70;;;34.80;64.30;;;;;;1909273;74;21099;-79
2023/05/07 01:54:42;;;;;;;26.73;16.57;;;35.00;63.80;;;;;;1888208;75;21060;-76
2023/05/07 01:57:13;;;;;;;23.42;16.50;;;35.00;63.70;;;;;;1887986;75;21585;-78
2023/05/07 01:59:44;;;;;;;22.98;16.27;;;35.10;63.60;;;;;;1872802;75;21044;-78
2023/05/07 02:02:17;;;;;;;21.48;16.42;;;35.20;63.40;;;;;;1936666;73;21579;-77
2023/05/07 02:04:49;;;;;;;19.60;15.65;;;35.30;63.40;;;;;;1930574;72;21153;-81
2023/05/07 02:07:21;;;;;;;20.92;15.72;;;35.30;63.10;;;;;;1930846;72;21048;-79
2023/05/07 02:09:53;;;;;;;21.70;15.48;;;35.40;63.20;;;;;;1941395;72;21124;-79
2023/05/07 02:12:24;;;;;;;19.82;16.75;;;35.50;62.50;;;;;;1936191;72;21541;-79
2023/05/07 02:15:03;;;;;;;23.60;15.55;;;35.60;62.40;;;;;;1886369;75;21117;-83
2023/05/07 02:18:12;;;;;;;18.75;16.10;;;35.70;61.90;;;;;;1893931;75;21188;-81
2023/05/07 02:20:52;;;;;;;24.32;16.48;;;35.80;61.60;;;;;;1862451;75;21098;-81
2023/05/07 02:23:24;;;;;;;20.75;16.50;;;35.90;61.60;;;;;;1886334;74;22129;-82
2023/05/07 02:25:55;;;;;;;19.65;15.72;;;36.00;61.20;;;;;;1902686;75;21646;-82
2023/05/07 02:28:26;;;;;;;20.70;16.12;;;36.10;61.20;;;;;;1874270;75;21895;-83
2023/05/07 02:30:58;;;;;;;19.48;16.17;;;36.10;60.80;;;;;;1877379;74;21670;-83
2023/05/07 02:33:29;;;;;;;18.67;15.13;;;36.20;60.80;;;;;;1877804;75;21162;-83
2023/05/07 02:36:13;;;;;;;18.20;15.38;;;36.30;60.40;;;;;;1879410;75;21169;-81
2023/05/07 02:38:44;;;;;;;29.77;17.37;;;36.40;60.20;;;;;;1882982;75;21624;-77
2023/05/07 02:41:25;;;;;;;23.45;16.40;;;36.50;60.00;;;;;;1876404;75;21064;-81
2023/05/07 02:43:56;;;;;;;19.95;15.48;;;36.60;59.80;;;;;;1900778;74;21171;-82
2023/05/07 02:46:27;;;;;;;18.15;15.43;;;36.70;59.10;;;;;;1879834;74;21598;-79
2023/05/07 02:49:06;;;;;;;19.12;15.15;;;36.80;58.60;;;;;;1879571;75;21189;-80
2023/05/07 02:51:38;;;;;;;17.82;14.60;;;36.90;58.80;;;;;;1941619;73;21086;-78
2023/05/07 02:54:10;;;;;;;19.37;14.90;;;37.10;58.50;;;;;;1922880;73;21105;-81
2023/05/07 02:56:45;;;;;;;18.00;14.30;;;37.10;57.40;;;;;;1949323;72;21132;-80
2023/05/07 02:59:20;;;;;;;17.20;14.05;;;37.20;57.90;;;;;;1940273;73;21139;-80
2023/05/07 03:01:56;;;;;;;18.48;14.15;;;37.20;57.90;;;;;;1932855;72;21134;-83
2023/05/07 03:04:28;;;;;;;17.45;14.50;;;37.30;57.80;;;;;;1937220;73;21168;-82
2023/05/07 03:07:15;;;;;;;19.42;15.08;;;37.40;57.50;;;;;;1936397;72;21129;-82
2023/05/07 03:13:17;;;;;;;20.68;14.43;;;37.40;56.40;;;;;;1922769;73;21230;-79
2023/05/07 03:15:48;;;;;;;18.20;13.88;;;37.60;57.10;;;;;;1946633;73;21133;-81
2023/05/07 03:18:26;;;;;;;16.85;14.15;;;37.60;56.50;;;;;;1936861;73;21129;-81
2023/05/07 03:21:02;;;;;;;18.82;13.55;;;37.60;56.50;;;;;;1935841;73;21113;-83
2023/05/07 03:23:45;;;;;;;16.62;13.98;;;37.80;56.00;;;;;;1927312;73;21128;-82
2023/05/07 03:26:39;;;;;;;15.88;13.72;;;37.80;55.80;;;;;;1922209;72;21109;-85
2023/05/07 03:29:27;;;;;;;16.77;14.45;;;37.80;55.50;;;;;;1943401;72;21182;-81
2023/05/07 03:31:58;;;;;;;16.48;13.95;;;37.90;55.70;;;;;;1942892;73;21034;-84
2023/05/07 03:34:30;;;;;;;15.70;13.98;;;37.90;55.40;;;;;;1914266;72;21103;-83
2023/05/07 03:37:18;;;;;;;21.90;14.28;;;38.00;55.00;;;;;;1927631;73;21146;-82
2023/05/07 03:39:50;;;;;;;20.65;13.75;;;38.10;54.90;;;;;;1937384;72;21129;-80
2023/05/07 03:42:22;;;;;;;22.80;18.85;;;38.20;55.20;;;;;;1942163;73;21096;-83
2023/05/07 03:44:53;;;;;;;19.05;15.08;;;38.30;54.40;;;;;;1941463;72;21114;-81
2023/05/07 03:47:24;;;;;;;19.07;14.13;;;38.30;54.50;;;;;;1913913;73;21165;-84
2023/05/07 03:49:57;;;;;;;16.95;14.80;;;38.40;53.90;;;;;;1946192;72;21124;-82
2023/05/07 03:52:28;;;;;;;21.65;14.47;;;38.40;53.70;;;;;;1932393;73;21148;-84
2023/05/07 03:54:59;;;;;;;17.10;13.98;;;38.20;53.40;;;;;;1934426;72;21049;-79
2023/05/07 03:57:31;;;;;;;16.77;14.13;;;38.10;53.90;;;;;;1927911;72;21589;-81
2023/05/07 04:00:04;;;;;;;15.60;13.62;;;38.10;53.80;;;;;;1939763;73;21121;-79
2023/05/07 04:02:35;;;;;;;16.23;14.47;;;38.10;54.00;;;;;;1937644;72;21043;-80
2023/05/07 04:05:07;;;;;;;19.17;14.75;;;38.30;53.60;;;;;;1922446;73;21635;-78
2023/05/07 04:07:39;;;;;;;19.52;13.93;;;38.40;54.20;;;;;;1927159;73;21589;-81
2023/05/07 04:10:13;;;;;;;15.93;14.25;;;38.50;53.30;;;;;;1950631;73;21101;-78
2023/05/07 04:12:46;;;;;;;16.60;13.50;;;38.50;53.00;;;;;;1946216;72;21140;-79
2023/05/07 04:15:18;;;;;;;17.05;14.58;;;38.60;53.70;;;;;;1918173;75;21128;-80
2023/05/07 04:17:50;;;;;;;17.25;13.60;;;38.70;53.10;;;;;;1926087;72;21178;-82
2023/05/07 04:20:21;;;;;;;15.72;13.40;;;38.80;52.50;;;;;;1945701;73;21066;-82
2023/05/07 04:22:52;;;;;;;17.98;13.93;;;38.80;51.50;;;;;;1938729;72;21914;-78
2023/05/07 04:25:26;;;;;;;15.18;13.53;;;38.90;51.70;;;;;;1952383;73;21116;-84
2023/05/07 04:27:56;;;;;;;21.17;13.88;;;38.90;52.10;;;;;;1930787;72;21160;-82
2023/05/07 04:30:29;;;;;;;14.47;13.03;;;39.00;52.40;;;;;;1953261;73;21093;-80
2023/05/07 04:33:01;;;;;;;14.65;12.00;;;39.10;51.00;;;;;;1952245;72;21140;-80
2023/05/07 04:35:32;;;;;;;18.25;13.32;;;39.10;50.50;;;;;;1952650;73;21643;-79
2023/05/07 04:38:03;;;;;;;17.48;12.98;;;39.20;51.30;;;;;;1928538;72;21125;-78
2023/05/07 04:40:38;;;;;;;16.27;12.98;;;39.20;51.10;;;;;;1948486;72;21125;-80
2023/05/07 04:43:09;;;;;;;14.95;12.73;;;39.30;51.40;;;;;;1930196;72;21991;-79
2023/05/07 04:45:43;;;;;;;14.43;12.65;;;39.30;51.20;;;;;;1951344;73;21038;-83
2023/05/07 04:48:15;;;;;;;16.93;13.43;;;39.40;51.00;;;;;;1954209;72;21616;-81
2023/05/07 04:50:48;;;;;;;14.53;13.03;;;39.40;50.70;;;;;;1947701;73;21632;-81
2023/05/07 04:53:21;;;;;;;20.77;13.40;;;39.50;50.00;;;;;;1960110;72;21105;-84
2023/05/07 04:55:57;;;;;;;15.25;13.65;;;39.50;50.00;;;;;;1940637;72;21140;-81
2023/05/07 04:58:31;;;;;;;15.63;13.13;;;39.50;50.30;;;;;;1941704;72;21521;-84
2023/05/07 05:01:02;;;;;;;20.32;13.40;;;39.50;50.30;;;;;;1945400;73;21612;-85
2023/05/07 05:03:33;;;;;;;17.10;13.30;;;39.50;49.60;;;;;;1949437;73;21132;-81
2023/05/07 05:06:04;;;;;;;14.47;12.98;;;39.60;50.20;;;;;;1960497;72;21161;-83
2023/05/07 05:08:39;;;;;;;16.15;14.47;;;39.60;50.70;;;;;;1962505;72;21074;-81
2023/05/07 05:11:22;;;;;;;15.20;12.50;;;39.60;49.00;;;;;;1954019;72;21168;-84
2023/05/07 05:14:03;;;;;;;14.63;12.13;;;39.70;49.70;;;;;;1948070;73;21915;-84
2023/05/07 05:16:34;;;;;;;18.37;13.65;;;39.70;49.30;;;;;;1950903;72;21224;-76
2023/05/07 05:19:07;;;;;;;15.15;13.20;;;39.80;49.30;;;;;;1942505;73;21128;-77
2023/05/07 05:21:45;;;;;;;16.77;13.20;;;39.80;49.90;;;;;;1950835;73;21124;-76
2023/05/07 05:24:38;;;;;;;17.55;14.38;;;39.90;49.70;;;;;;1958510;73;21119;-76
2023/05/07 05:27:10;;;;;;;15.60;13.05;;;39.90;49.30;;;;;;1888984;75;21118;-78
2023/05/07 05:29:44;;;;;;;13.40;12.07;;;40.00;49.20;;;;;;1887683;75;21178;-78
2023/05/07 05:32:15;;;;;;;14.30;12.80;;;40.00;48.80;;;;;;1869110;75;21196;-76
2023/05/07 05:34:48;;;;;;;15.10;12.63;;;40.00;48.20;;;;;;1891263;75;21223;-79
2023/05/07 05:37:33;;;;;;;14.60;13.10;;;40.10;49.20;;;;;;1835262;77;21169;-78
2023/05/07 05:40:06;;;;;;;15.23;13.60;;;40.00;49.00;;;;;;1835205;77;21139;-79
2023/05/07 05:42:39;;;;;;;14.33;11.70;;;40.00;49.10;;;;;;1879908;75;21071;-79
2023/05/07 05:45:12;;;;;;;15.50;13.48;;;40.10;49.00;;;;;;1883531;75;21400;-78
2023/05/07 05:47:51;;;;;;;14.50;12.95;;;40.20;48.80;;;;;;1887342;75;21150;-78
2023/05/07 05:50:29;;;;;;;13.83;12.50;;;40.20;48.80;;;;;;1881968;75;21081;-77
2023/05/07 05:53:02;;;;;;;16.82;13.45;;;40.30;48.80;;;;;;1873656;75;21520;-78
2023/05/07 05:55:33;;;;;;;15.65;12.35;;;40.30;48.70;;;;;;1890433;75;21072;-78
2023/05/07 05:58:05;;;;;;;17.02;12.78;;;40.30;48.10;;;;;;1893772;75;21142;-80
2023/05/07 06:00:36;;;;;;;15.80;12.88;;;40.30;48.40;;;;;;1885121;75;21587;-81
2023/05/07 06:03:08;;;;;;;18.17;13.50;;;40.30;49.90;;;;;;1867601;77;21079;-79
2023/05/07 06:05:39;;;;;;;14.15;11.93;;;40.30;47.80;;;;;;1882298;75;21146;-79
2023/05/07 06:08:10;;;;;;;15.15;12.53;;;40.30;48.90;;;;;;1889804;75;21185;-78
2023/05/07 06:10:42;;;;;;;13.78;12.35;;;40.30;49.30;;;;;;1877225;75;22106;-79
2023/05/07 06:13:19;;;;;;;15.20;12.98;;;40.20;49.80;;;;;;1889067;74;21111;-78
2023/05/07 06:15:47;;;;;;;14.10;12.70;;;40.20;48.70;;;;;;1877442;75;21122;-77
2023/05/07 06:18:21;;;;;;;16.42;13.22;;;40.20;48.90;;;;;;1878243;75;21133;-76
2023/05/07 06:20:52;;;;;;;16.65;13.45;;;40.10;48.60;;;;;;1883605;75;21130;-77
2023/05/07 06:23:24;;;;;;;14.40;12.80;;;40.10;49.40;;;;;;1882995;75;21546;-78
2023/05/07 06:25:56;;;;;;;15.70;12.37;;;40.10;48.60;;;;;;1899095;75;21111;-77
2023/05/07 06:28:28;;;;;;;15.72;13.72;;;40.10;49.70;;;;;;1907062;74;21180;-77
2023/05/07 06:31:01;;;;;;;18.90;13.40;;;40.00;50.60;;;;;;1899582;75;21103;-77
2023/05/07 06:33:36;;;;;;;17.50;14.20;;;39.90;51.10;;;;;;1893006;75;21691;-77
2023/05/07 06:36:11;;;;;;;16.25;13.50;;;39.80;51.10;;;;;;1895512;75;21173;-78
2023/05/07 06:38:46;;;;;;;17.70;13.00;;;39.80;51.20;;;;;;1889774;75;21157;-78
2023/05/07 06:41:20;;;;;;;17.75;13.38;;;39.70;50.40;;;;;;1900229;75;21133;-79
2023/05/07 06:43:51;;;;;;;15.50;13.38;;;39.60;50.70;;;;;;1892323;75;21076;-78
2023/05/07 06:46:23;;;;;;;15.63;13.90;;;39.50;50.30;;;;;;1894707;75;21639;-80
2023/05/07 06:48:54;;;;;;;20.88;15.35;;;39.40;50.70;;;;;;1895695;75;21596;-78
2023/05/07 06:51:26;;;;;;;21.42;13.80;;;39.40;50.90;;;;;;1897183;75;21228;-77
2023/05/07 06:53:58;;;;;;;15.78;13.72;;;39.40;50.90;;;;;;1826901;77;21138;-77
2023/05/07 06:56:30;;;;;;;16.35;13.53;;;39.50;50.70;;;;;;1884706;75;21075;-76
2023/05/07 06:59:03;;;;;;;23.83;14.15;;;39.60;50.70;;;;;;1826004;77;21640;-76
2023/05/07 07:01:34;;;;;;;18.10;13.10;;;39.70;50.60;;;;;;1909569;75;21137;-75
2023/05/07 07:04:12;;;;;;;17.95;13.58;;;39.80;50.60;;;;;;1813345;78;21135;-77
2023/05/07 07:06:41;;;;;;;16.00;12.33;;;39.70;50.00;;;;;;1912705;75;21154;-77
2023/05/07 07:09:12;;;;;;;18.00;14.10;;;39.70;50.70;;;;;;1902813;75;22069;-76
2023/05/07 07:11:45;;;;;;;14.65;13.15;;;39.80;50.50;;;;;;1888256;75;21617;-78
2023/05/07 07:14:28;;;;;;;15.75;13.93;;;39.80;50.50;;;;;;1829668;77;21152;-77
2023/05/07 07:16:59;;;;;;;14.75;13.22;;;39.90;50.30;;;;;;1894595;75;21099;-76
2023/05/07 07:19:31;;;;;;;16.55;13.38;;;39.90;50.00;;;;;;1895562;74;21553;-77
2023/05/07 07:22:02;;;;;;;17.17;12.98;;;39.90;50.20;;;;;;1916181;74;21116;-77
2023/05/07 07:24:34;;;;;;;14.95;13.38;;;39.90;50.60;;;;;;1881694;75;21157;-78
2023/05/07 07:27:05;;;;;;;14.70;13.13;;;39.90;50.70;;;;;;1873868;75;21216;-78
2023/05/07 07:29:37;;;;;;;15.25;12.55;;;39.90;51.00;;;;;;1880493;75;21646;-77
2023/05/07 07:32:08;;;;;;;19.07;13.28;;;39.90;50.40;;;;;;1902450;75;21612;-78
2023/05/07 07:34:43;;;;;;;15.20;13.60;;;40.00;50.80;;;;;;1880301;75;21165;-78
2023/05/07 07:37:15;;;;;;;21.30;13.95;;;40.10;50.10;;;;;;1809937;78;21119;-77
2023/05/07 07:39:46;;;;;;;15.95;12.68;;;40.10;50.20;;;;;;1895453;75;21091;-79
2023/05/07 07:42:18;;;;;;;13.48;12.07;;;40.00;50.20;;;;;;1841525;77;21074;-76
2023/05/07 07:44:49;;;;;;;15.48;12.90;;;40.10;50.30;;;;;;1898172;75;21165;-78
2023/05/07 07:47:20;;;;;;;14.85;12.88;;;40.10;50.10;;;;;;1857831;77;21165;-77
2023/05/07 07:49:51;;;;;;;16.73;13.22;;;40.10;50.10;;;;;;1892767;75;21130;-75
2023/05/07 07:52:23;;;;;;;16.73;12.60;;;40.00;50.00;;;;;;1824207;77;21164;-78
2023/05/07 07:54:55;;;;;;;17.42;13.25;;;40.00;50.20;;;;;;1903869;75;21201;-78
2023/05/07 07:57:27;;;;;;;16.40;12.93;;;40.10;50.20;;;;;;1823879;78;21117;-76
2023/05/07 08:00:07;;;;;;;15.40;13.32;;;40.10;49.90;;;;;;1905136;75;21172;-77
2023/05/07 08:02:46;;;;;;;17.12;12.98;;;40.10;49.80;;;;;;1849767;77;21090;-78
2023/05/07 08:05:20;;;;;;;24.32;13.60;;;40.00;50.10;;;;;;1854837;76;21593;-78
2023/05/07 08:07:52;;;;;;;13.60;12.20;;;40.00;50.60;;;;;;1886810;75;21196;-77
2023/05/07 08:10:42;;;;;;;16.20;13.05;;;40.00;50.50;;;;;;1899876;75;21066;-79
2023/05/07 08:13:14;;;;;;;27.75;13.83;;;40.00;50.70;;;;;;1892867;75;21126;-80
2023/05/07 08:15:45;;;;;;;14.90;12.78;;;40.00;51.20;;;;;;1844509;77;21212;-78
2023/05/07 08:18:17;;;;;;;17.77;12.50;;;39.90;50.80;;;;;;1843407;77;21101;-80
2023/05/07 08:20:49;;;;;;;17.00;12.78;;;39.90;50.40;;;;;;1905389;75;21063;-79
2023/05/07 08:23:23;;;;;;;18.60;12.98;;;39.90;50.30;;;;;;1831755;77;21136;-79
2023/05/07 08:25:55;;;;;;;14.38;12.25;;;39.90;50.30;;;;;;1885546;75;21124;-79
2023/05/07 08:28:27;;;;;;;15.18;12.88;;;39.80;49.60;;;;;;1897286;75;21142;-78
2023/05/07 08:31:00;;;;;;;17.45;12.85;;;39.80;49.80;;;;;;1879530;76;21178;-80
2023/05/07 08:33:40;;;;;;;16.02;12.53;;;39.80;49.80;;;;;;1867795;76;21237;-79
2023/05/07 08:36:11;;;;;;;16.87;12.47;;;39.80;49.80;;;;;;1882526;75;21220;-78
2023/05/07 08:38:45;;;;;;;17.07;12.75;;;39.70;49.90;;;;;;1875329;76;21606;-80
2023/05/07 08:41:15;;;;;;;14.20;12.20;;;39.80;50.20;;;;;;1876583;76;21186;-80
2023/05/07 08:43:49;;;;;;;16.30;11.95;;;39.70;49.70;;;;;;1880591;75;21174;-81
2023/05/07 08:46:25;;;;;;;14.80;12.40;;;39.70;50.10;;;;;;1877227;74;21134;-79
2023/05/07 08:48:55;;;;;;;;;;;39.70;50.30;;;;;;1890748;75;21185;-80
2023/05/07 08:51:27;;;;;;;13.70;11.93;;;39.70;51.20;;;;;;1887581;74;20161;-78
2023/05/07 08:53:59;;;;;;;13.78;12.33;;;39.70;49.20;;;;;;1881831;76;21121;-79
2023/05/07 08:56:30;;;;;;;15.63;12.07;;;39.70;49.00;;;;;;1882231;75;21052;-79
2023/05/07 08:59:01;;;;;;;13.62;12.07;;;39.70;49.50;;;;;;1861169;76;21518;-79
2023/05/07 09:01:32;;;;;;;13.18;11.88;;;39.60;49.10;;;;;;1885601;75;21723;-78
2023/05/07 09:04:05;;;;;;;13.05;11.73;;;39.60;49.40;;;;;;1871308;75;21111;-78
2023/05/07 09:06:39;;;;;;;15.10;12.25;;;39.60;48.90;;;;;;1900155;75;21542;-80
2023/05/07 09:09:10;;;;;;;13.32;11.65;;;39.60;49.30;;;;;;1880768;76;21186;-79
2023/05/07 09:11:41;;;;;;;14.23;12.73;;;39.60;48.90;;;;;;1874217;75;21627;-79
2023/05/07 09:14:17;;;;;;;13.85;12.13;;;39.60;49.30;;;;;;1866165;76;21954;-80
2023/05/07 09:16:48;;;;;;;14.20;12.20;;;39.60;49.10;;;;;;1875312;75;21692;-78
2023/05/07 09:19:27;;;;;;;14.58;12.58;;;39.60;49.50;;;;;;1865655;76;21163;-79
2023/05/07 09:22:09;;;;;;;15.55;13.90;;;39.60;49.30;;;;;;1897026;75;21138;-79
2023/05/07 09:24:40;;;;;;;13.03;11.33;;;39.60;48.90;;;;;;1901745;75;21082;-79
2023/05/07 09:27:15;;;;;;;12.85;11.50;;;39.50;49.50;;;;;;1875580;74;21133;-79
2023/05/07 09:29:46;;;;;;;16.95;11.53;;;39.50;47.80;;;;;;1883534;75;21115;-80
2023/05/07 09:32:18;;;;;;;13.95;12.15;;;39.50;48.50;;;;;;1900551;74;21200;-79
2023/05/07 09:34:50;;;;;;;13.13;11.80;;;39.50;48.30;;;;;;1870014;76;21138;-81
2023/05/07 09:37:24;;;;;;;12.85;11.55;;;39.40;48.10;;;;;;1898811;75;21177;-79
2023/05/07 09:40:28;;;;;;;15.00;11.90;;;39.40;48.30;;;;;;1879978;76;21599;-79
2023/05/07 09:43:13;;;;;;;12.28;11.08;;;39.40;48.50;;;;;;1901059;75;21127;-80
2023/05/07 09:45:45;;;;;;;14.38;12.88;;;39.30;48.40;;;;;;1888765;76;21162;-79
2023/05/07 09:48:18;;;;;;;14.90;10.78;;;39.30;48.40;;;;;;1878576;75;21133;-80
2023/05/07 09:50:52;;;;;;;13.32;11.10;;;39.30;48.40;;;;;;1864060;76;21076;-80
2023/05/07 09:53:25;;;;;;;13.80;11.55;;;39.30;48.90;;;;;;1902567;75;21236;-78
2023/05/07 09:56:00;;;;;;;14.83;11.55;;;39.20;48.50;;;;;;1888439;76;21252;-80
2023/05/07 09:58:33;;;;;;;13.95;11.12;;;39.20;48.60;;;;;;1896438;75;21179;-80
2023/05/07 10:01:05;;;;;;;12.13;10.98;;;39.20;49.10;;;;;;1862137;76;21139;-78
2023/05/07 10:03:37;;;;;;;18.65;11.48;;;39.10;48.50;;;;;;1871536;75;21051;-80
2023/05/07 10:06:13;;;;;;;13.55;10.98;;;39.10;48.60;;;;;;1865005;76;21208;-80
2023/05/07 10:08:45;;;;;;;12.60;11.35;;;39.00;49.10;;;;;;1892637;75;21071;-79
2023/05/07 10:11:20;;;;;;;17.02;11.73;;;39.00;48.50;;;;;;1873741;76;21095;-75
2023/05/07 10:13:52;;;;;;;15.23;11.00;;;39.00;49.00;;;;;;1898902;75;21373;-79
2023/05/07 10:16:25;;;;;;;14.00;11.40;;;39.00;47.90;;;;;;1887034;76;21189;-78
2023/05/07 10:18:57;;;;;;;11.65;10.45;;;39.00;48.30;;;;;;1887536;75;21131;-79
2023/05/07 10:21:31;;;;;;;19.62;14.68;;;39.00;48.60;;;;;;1874472;76;21185;-79
2023/05/07 10:24:16;;;;;;;16.75;12.88;;;39.00;48.90;;;;;;1886133;75;21095;-84
2023/05/07 10:26:50;;;;;;;16.05;10.95;;;38.90;48.30;;;;;;1877893;75;21134;-83
2023/05/07 10:29:39;;;;;;;11.55;10.43;;;38.90;48.20;;;;;;1865043;76;21150;-84
2023/05/07 10:32:31;;;;;;;14.05;11.43;;;38.90;48.40;;;;;;1870012;76;21150;-83
2023/05/07 10:35:16;;;;;;;;;;;;;;;;;;;;;
2023/05/07 10:37:40;;;;;;;16.57;11.70;;;38.80;48.90;;;;;;1872006;76;21131;-83
2023/05/07 10:40:17;;;;;;;15.80;11.83;;;38.80;49.00;;;;;;1882792;75;21126;-84
2023/05/07 10:43:03;;;;;;;13.22;11.53;;;38.80;49.00;;;;;;1877398;76;21194;-85
2023/05/07 10:45:35;;;;;;;13.13;11.83;;;38.80;49.10;;;;;;1880450;75;21125;-84
2023/05/07 10:48:17;;;;;;;13.68;12.28;;;38.80;49.60;;;;;;1874541;76;21048;-83
2023/05/07 10:50:49;;;;;;;12.55;11.25;;;38.70;49.60;;;;;;1888565;75;21118;-85
2023/05/07 10:53:24;;;;;;;14.35;12.03;;;38.70;49.90;;;;;;1873262;76;21181;-84
2023/05/07 10:56:13;;;;;;;13.85;11.90;;;38.70;49.90;;;;;;1899451;75;21095;-85
2023/05/07 10:58:44;;;;;;;16.62;12.37;;;38.70;49.80;;;;;;1893824;75;21122;-81
2023/05/07 11:01:16;;;;;;;13.22;11.78;;;38.70;49.80;;;;;;1877362;76;21162;-83
2023/05/07 11:04:07;;;;;;;14.10;12.70;;;38.60;49.90;;;;;;1880718;76;21138;-85
2023/05/07 11:06:41;;;;;;;18.30;12.70;;;38.60;50.00;;;;;;1881687;75;21182;-85
2023/05/07 11:09:12;;;;;;;13.88;12.23;;;38.60;50.30;;;;;;1889372;75;21210;-86
2023/05/07 11:11:55;;;;;;;14.35;12.43;;;38.60;50.40;;;;;;1887137;76;21064;-83
2023/05/07 11:14:46;;;;;;;14.95;12.55;;;38.50;50.50;;;;;;1884916;76;21594;-83
2023/05/07 11:17:21;;;;;;;14.95;12.98;;;38.50;50.70;;;;;;1861996;76;21075;-84
2023/05/07 11:19:53;;;;;;;15.58;13.32;;;38.50;51.00;;;;;;1897035;75;21068;-85
2023/05/07 11:22:36;;;;;;;17.48;13.43;;;38.40;51.20;;;;;;1876372;76;21359;-85
2023/05/07 11:25:09;;;;;;;15.25;13.65;;;38.40;51.30;;;;;;1887525;75;21242;-84
2023/05/07 11:27:42;;;;;;;18.12;12.65;;;38.40;51.50;;;;;;1870722;76;21632;-85
2023/05/07 11:30:20;;;;;;;19.12;13.22;;;38.40;51.50;;;;;;1887928;75;21215;-85
2023/05/07 11:32:51;;;;;;;16.77;12.60;;;38.30;51.40;;;;;;1892857;75;21166;-84
2023/05/07 11:35:24;;;;;;;17.00;12.60;;;38.30;51.50;;;;;;1900821;75;21166;-85
2023/05/07 11:37:58;;;;;;;19.07;13.20;;;38.20;51.70;;;;;;1900137;75;21185;-84
2023/05/07 11:40:29;;;;;;;14.53;12.50;;;38.20;51.60;;;;;;1893234;75;21055;-84
2023/05/07 11:43:01;;;;;;;16.17;12.47;;;38.20;51.60;;;;;;1879062;75;21130;-83
2023/05/07 11:45:36;;;;;;;22.02;13.58;;;38.10;51.70;;;;;;1908602;75;21173;-84
2023/05/07 11:48:08;;;;;;;18.65;13.25;;;38.10;52.00;;;;;;1880677;75;21138;-85
2023/05/07 11:50:58;;;;;;;16.75;12.65;;;38.00;52.20;;;;;;1894651;75;21184;-84
2023/05/07 11:53:35;;;;;;;16.02;12.58;;;38.00;52.20;;;;;;1907072;74;21159;-85
2023/05/07 11:56:11;;;;;;;20.50;13.22;;;38.00;52.50;;;;;;1896346;75;21138;-86
2023/05/07 11:58:42;;;;;;;25.87;12.47;;;37.90;52.80;;;;;;1877597;75;21128;-85
2023/05/07 12:01:19;;;;;;;15.43;11.63;;;37.80;53.00;;;;;;1899355;75;21123;-85
2023/05/07 12:03:50;;;;;;;14.10;11.22;;;37.70;53.30;;;;;;1888973;75;21534;-86
2023/05/07 12:06:22;;;;;;;14.60;11.65;;;37.60;53.60;;;;;;1902288;75;21164;-86
2023/05/07 12:08:54;;;;;;;15.68;11.20;;;37.40;53.70;;;;;;1894180;75;21142;-83
2023/05/07 12:11:32;;;;;;;21.52;11.05;;;37.30;54.00;;;;;;1897318;75;21507;-85
2023/05/07 12:14:03;;;;;;;17.10;12.55;;;37.30;54.40;;;;;;1824672;77;21674;-86
2023/05/07 12:16:35;;;;;;;18.55;12.15;;;37.20;54.60;;;;;;1869973;75;21182;-84
2023/05/07 12:19:08;;;;;;;16.05;11.78;;;37.10;54.80;;;;;;1895536;75;21158;-85
2023/05/07 12:21:39;;;;;;;16.95;12.10;;;37.00;55.00;;;;;;1900588;75;21182;-86
2023/05/07 12:24:11;;;;;;;19.20;12.53;;;37.00;55.00;;;;;;1891367;75;21075;-86
2023/05/07 12:26:43;;;;;;;17.32;12.35;;;37.00;55.40;;;;;;1888833;75;21121;-85
2023/05/07 12:29:14;;;;;;;17.85;12.58;;;36.90;55.40;;;;;;1875402;75;21131;-86
2023/05/07 12:31:45;;;;;;;17.42;12.35;;;36.90;55.50;;;;;;1893466;75;21590;-85
2023/05/07 12:34:17;;;;;;;22.13;12.58;;;36.80;55.70;;;;;;1907025;75;21533;-86
2023/05/07 12:36:49;;;;;;;18.48;12.60;;;36.80;55.80;;;;;;1898579;75;21479;-86
2023/05/07 12:39:21;;;;;;;21.12;12.65;;;36.80;55.90;;;;;;1891800;75;21605;-85
2023/05/07 12:41:56;;;;;;;14.78;12.15;;;36.80;55.80;;;;;;1896738;75;21589;-86
2023/05/07 12:44:36;;;;;;;13.90;11.95;;;36.70;55.90;;;;;;1900651;75;21138;-86
2023/05/07 12:47:08;;;;;;;16.73;11.57;;;36.70;56.00;;;;;;1899981;75;21216;-85
2023/05/07 12:49:39;;;;;;;15.15;11.68;;;36.70;56.10;;;;;;1884901;75;21547;-86
2023/05/07 12:52:12;;;;;;;15.53;11.55;;;36.70;56.40;;;;;;1894363;75;21087;-86
2023/05/07 12:54:45;;;;;;;17.37;13.55;;;36.60;56.40;;;;;;1905908;75;21102;-86
2023/05/07 12:57:20;;;;;;;15.70;12.07;;;36.60;56.50;;;;;;1890505;75;21108;-86
2023/05/07 13:00:15;;;;;;;14.78;11.18;;;36.60;56.80;;;;;;1880012;75;21189;-86
2023/05/07 13:02:48;;;;;;;13.32;11.45;;;36.60;57.00;;;;;;1874964;75;21161;-85
2023/05/07 13:05:37;;;;;;;;;;;;;;;;;;;;;
2023/05/07 13:08:09;;;;;;;14.50;12.10;;;36.50;57.00;;;;;;1893534;75;21041;-85
2023/05/07 13:10:40;;;;;;;13.72;12.20;;;36.50;57.10;;;;;;1899790;75;21541;-85
2023/05/07 13:13:11;;;;;;;14.30;11.78;;;36.50;57.20;;;;;;1894630;75;21636;-85